createdAt,value
2019-04-26T00:00:07.835Z,2.57
2019-04-26T00:02:45.594Z,1.60
2019-04-26T00:05:14.389Z,1.97
2019-04-26T00:07:42.171Z,1.90
2019-04-26T00:10:20.624Z,2.20
2019-04-26T00:16:22.034Z,1.93
2019-04-26T00:18:49.433Z,1.70
2019-04-26T00:21:16.828Z,1.83
2019-04-26T00:23:44.838Z,1.80
2019-04-26T00:26:13.428Z,1.93
2019-04-26T00:28:40.938Z,1.73
2019-04-26T00:31:08.620Z,1.80
2019-04-26T00:33:36.010Z,2.27
2019-04-26T00:36:03.407Z,1.70
2019-04-26T00:38:31.130Z,1.77
2019-04-26T00:40:58.820Z,1.70
2019-04-26T00:43:27.513Z,1.83
2019-04-26T00:45:55.781Z,1.50
2019-04-26T00:48:24.487Z,1.50
2019-04-26T00:50:53.087Z,1.80
2019-04-26T00:53:21.800Z,1.70
2019-04-26T00:55:50.042Z,1.40
2019-04-26T00:58:18.638Z,1.37
2019-04-26T01:00:46.386Z,1.60
2019-04-26T01:03:15.217Z,1.80
2019-04-26T01:05:42.683Z,1.90
2019-04-26T01:08:10.111Z,2.10
2019-04-26T01:10:37.497Z,1.50
2019-04-26T01:13:04.890Z,1.60
2019-04-26T01:15:32.326Z,1.40
2019-04-26T01:17:59.730Z,1.60
2019-04-26T01:20:28.223Z,1.50
2019-04-26T01:22:59.527Z,1.87
2019-04-26T01:25:53.330Z,2.00
2019-04-26T01:28:29.494Z,1.73
2019-04-26T01:30:59.728Z,2.00
2019-04-26T01:33:28.172Z,2.00
2019-04-26T01:36:12.830Z,1.80
2019-04-26T01:38:34.954Z,1.80
2019-04-26T01:41:06.740Z,1.30
2019-04-26T01:43:49.434Z,1.83
2019-04-26T01:46:23.184Z,1.77
2019-04-26T01:48:59.162Z,1.60
2019-04-26T01:51:38.263Z,1.70
2019-04-26T01:54:07.455Z,1.53
2019-04-26T01:56:36.348Z,1.87
2019-04-26T01:59:06.778Z,2.00
2019-04-26T02:01:50.122Z,1.80
2019-04-26T02:04:17.608Z,2.20
2019-04-26T02:06:45.110Z,2.10
2019-04-26T02:09:13.323Z,1.90
2019-04-26T02:11:41.134Z,1.90
2019-04-26T02:14:08.834Z,1.80
2019-04-26T02:16:36.738Z,2.30
2019-04-26T02:19:04.650Z,2.20
2019-04-26T02:21:37.908Z,2.40
2019-04-26T02:24:11.793Z,2.00
2019-04-26T02:26:43.106Z,2.23
2019-04-26T02:29:14.897Z,2.10
2019-04-26T02:31:44.912Z,2.77
2019-04-26T02:34:12.937Z,2.47
2019-04-26T02:36:56.414Z,1.93
2019-04-26T02:39:16.604Z,1.97
2019-04-26T02:41:46.195Z,1.80
2019-04-26T02:44:14.883Z,2.60
2019-04-26T02:46:50.197Z,1.93
2019-04-26T02:49:29.297Z,2.03
2019-04-26T02:52:05.257Z,2.33
2019-04-26T02:54:44.082Z,2.47
2019-04-26T02:57:22.131Z,2.13
2019-04-26T02:59:54.051Z,2.03
2019-04-26T03:02:23.871Z,2.10
2019-04-26T03:04:55.953Z,2.10
2019-04-26T03:07:48.260Z,2.00
2019-04-26T03:10:16.995Z,1.90
2019-04-26T03:12:45.909Z,1.93
2019-04-26T03:15:30.354Z,1.97
2019-04-26T03:18:28.351Z,2.30
2019-04-26T03:21:01.465Z,2.30
2019-04-26T03:23:52.873Z,2.00
2019-04-26T03:26:55.426Z,1.70
2019-04-26T03:29:42.025Z,1.90
2019-04-26T03:32:49.354Z,2.10
2019-04-26T03:35:41.158Z,2.73
2019-04-26T03:38:18.502Z,1.40
2019-04-26T03:41:15.138Z,2.00
2019-04-26T03:44:18.208Z,2.23
2019-04-26T03:46:58.180Z,2.30
2019-04-26T03:49:57.038Z,2.00
2019-04-26T03:53:08.753Z,1.90
2019-04-26T03:56:35.845Z,2.13
2019-04-26T03:59:24.572Z,2.10
2019-04-26T04:02:06.766Z,2.50
2019-04-26T04:04:48.359Z,2.00
2019-04-26T04:07:35.604Z,2.37
2019-04-26T04:09:53.963Z,2.27
2019-04-26T04:12:34.683Z,3.00
2019-04-26T04:15:13.387Z,2.10
2019-04-26T04:17:51.805Z,1.90
2019-04-26T04:20:46.198Z,2.30
2019-04-26T04:24:02.298Z,3.00
2019-04-26T04:27:00.482Z,2.60
2019-04-26T04:29:57.444Z,2.53
2019-04-26T04:32:34.090Z,2.33
2019-04-26T04:35:06.796Z,3.03
2019-04-26T04:38:01.873Z,2.50
2019-04-26T04:41:13.180Z,2.80
2019-04-26T04:43:53.252Z,3.10
2019-04-26T04:47:23.662Z,2.73
2019-04-26T04:50:12.672Z,2.53
2019-04-26T04:52:59.227Z,3.20
2019-04-26T04:55:58.237Z,3.00
2019-04-26T04:58:35.375Z,2.97
2019-04-26T05:01:39.498Z,2.90
2019-04-26T05:04:17.456Z,3.47
2019-04-26T05:07:11.532Z,2.60
2019-04-26T05:09:49.535Z,3.10
2019-04-26T05:12:24.948Z,3.60
2019-04-26T05:15:13.204Z,3.37
2019-04-26T05:18:16.173Z,4.07
2019-04-26T05:21:17.178Z,3.37
2019-04-26T05:24:25.156Z,4.70
2019-04-26T05:27:44.407Z,5.03
2019-04-26T05:30:33.657Z,4.20
2019-04-26T05:33:25.695Z,4.30
2019-04-26T05:36:16.354Z,3.20
2019-04-26T05:39:07.075Z,3.17
2019-04-26T05:42:09.546Z,3.40
2019-04-26T05:45:18.214Z,3.43
2019-04-26T05:48:08.350Z,3.40
2019-04-26T05:51:15.799Z,3.20
2019-04-26T05:54:14.364Z,3.50
2019-04-26T05:56:59.058Z,2.90
2019-04-26T06:00:32.488Z,3.07
2019-04-26T06:03:38.578Z,3.07
2019-04-26T06:06:27.174Z,2.93
2019-04-26T06:09:39.642Z,3.10
2019-04-26T06:12:32.703Z,2.90
2019-04-26T06:15:43.618Z,3.80
2019-04-26T06:18:34.078Z,3.57
2019-04-26T06:21:15.719Z,3.27
2019-04-26T06:24:02.095Z,3.47
2019-04-26T06:27:12.151Z,3.30
2019-04-26T06:29:53.777Z,3.70
2019-04-26T06:33:00.392Z,3.30
2019-04-26T06:35:26.957Z,3.03
2019-04-26T06:38:47.698Z,3.13
2019-04-26T06:42:28.265Z,3.70
2019-04-26T06:45:28.867Z,3.00
2019-04-26T06:48:06.092Z,2.73
2019-04-26T06:50:41.731Z,3.10
2019-04-26T06:53:22.266Z,3.53
2019-04-26T06:56:08.138Z,4.20
2019-04-26T06:59:09.314Z,3.10
2019-04-26T07:01:59.221Z,3.97
2019-04-26T07:05:07.984Z,4.70
2019-04-26T07:08:09.615Z,2.97
2019-04-26T07:11:11.662Z,3.87
2019-04-26T07:13:52.691Z,3.50
2019-04-26T07:16:30.250Z,3.63
2019-04-26T07:19:49.938Z,3.53
2019-04-26T07:22:49.990Z,3.03
2019-04-26T07:25:59.214Z,3.67
2019-04-26T07:29:01.146Z,5.70
2019-04-26T07:31:52.481Z,5.10
2019-04-26T07:35:04.574Z,4.03
2019-04-26T07:38:15.710Z,4.20
2019-04-26T07:41:25.298Z,3.80
2019-04-26T07:44:10.092Z,3.00
2019-04-26T07:47:26.464Z,2.77
2019-04-26T07:50:37.066Z,3.37
2019-04-26T07:53:42.054Z,2.90
2019-04-26T07:56:41.058Z,2.80
2019-04-26T07:59:55.929Z,2.87
2019-04-26T08:02:49.058Z,3.53
2019-04-26T08:05:30.658Z,2.90
2019-04-26T08:08:04.219Z,3.10
2019-04-26T08:10:35.850Z,2.60
2019-04-26T08:13:06.469Z,3.10
2019-04-26T08:16:12.336Z,3.30
2019-04-26T08:18:48.254Z,2.70
2019-04-26T08:21:31.839Z,2.63
2019-04-26T08:24:28.139Z,2.70
2019-04-26T08:27:23.515Z,2.87
2019-04-26T08:29:53.914Z,2.73
2019-04-26T08:32:24.530Z,2.63
2019-04-26T08:35:10.847Z,3.20
2019-04-26T08:37:53.245Z,2.90
2019-04-26T08:40:30.648Z,2.70
2019-04-26T08:43:22.607Z,3.73
2019-04-26T08:46:26.341Z,2.73
2019-04-26T08:49:21.698Z,2.90
2019-04-26T08:51:52.273Z,2.93
2019-04-26T08:54:23.676Z,3.00
2019-04-26T08:56:59.681Z,3.20
2019-04-26T08:59:31.070Z,3.00
2019-04-26T09:02:20.590Z,3.00
2019-04-26T09:05:01.532Z,3.13
2019-04-26T09:07:32.930Z,3.30
2019-04-26T09:10:10.727Z,3.30
2019-04-26T09:12:36.856Z,3.20
2019-04-26T09:15:07.886Z,3.20
2019-04-26T09:17:35.362Z,3.00
2019-04-26T09:20:07.672Z,3.00
2019-04-26T09:22:43.946Z,2.60
2019-04-26T09:25:34.466Z,2.60
2019-04-26T09:28:12.190Z,3.03
2019-04-26T09:30:59.097Z,2.80
2019-04-26T09:33:37.424Z,2.90
2019-04-26T09:36:04.932Z,2.77
2019-04-26T09:38:32.345Z,3.07
2019-04-26T09:41:00.626Z,2.60
2019-04-26T09:43:47.714Z,3.10
2019-04-26T09:46:40.970Z,2.73
2019-04-26T09:49:43.209Z,3.20
2019-04-26T09:52:17.030Z,2.83
2019-04-26T09:54:45.770Z,2.60
2019-04-26T09:57:13.178Z,2.73
2019-04-26T09:59:41.224Z,3.60
2019-04-26T10:02:09.447Z,2.60
2019-04-26T10:04:36.846Z,2.80
2019-04-26T10:07:04.771Z,2.53
2019-04-26T10:09:32.575Z,2.77
2019-04-26T10:12:05.713Z,3.07
2019-04-26T10:14:42.643Z,2.30
2019-04-26T10:17:17.394Z,2.70
2019-04-26T10:19:50.286Z,2.60
2019-04-26T10:22:17.690Z,2.33
2019-04-26T10:24:45.079Z,2.90
2019-04-26T10:27:12.519Z,2.90
2019-04-26T10:29:39.919Z,2.90
2019-04-26T10:32:07.352Z,2.63
2019-04-26T10:34:34.777Z,3.43
2019-04-26T10:37:06.165Z,3.03
2019-04-26T10:39:32.527Z,2.90
2019-04-26T10:42:00.693Z,2.80
2019-04-26T10:44:28.103Z,2.80
2019-04-26T10:46:59.893Z,2.73
2019-04-26T10:49:43.034Z,3.10
2019-04-26T10:52:18.474Z,3.17
2019-04-26T10:54:49.509Z,2.83
2019-04-26T10:57:27.047Z,3.17
2019-04-26T10:59:59.259Z,2.90
2019-04-26T11:02:26.785Z,2.77
2019-04-26T11:04:54.214Z,2.90
2019-04-26T11:07:21.611Z,2.70
2019-04-26T11:09:49.028Z,2.80
2019-04-26T11:12:16.598Z,2.97
2019-04-26T11:14:43.986Z,2.90
2019-04-26T11:17:15.539Z,2.97
2019-04-26T11:19:40.988Z,3.00
2019-04-26T11:22:08.400Z,2.80
2019-04-26T11:24:35.783Z,3.20
2019-04-26T11:27:05.315Z,3.00
2019-04-26T11:29:32.900Z,2.83
2019-04-26T11:32:02.684Z,3.57
2019-04-26T11:34:29.602Z,3.00
2019-04-26T11:36:57.153Z,3.20
2019-04-26T11:39:24.556Z,3.17
2019-04-26T11:41:52.006Z,3.00
2019-04-26T11:44:19.456Z,2.70
2019-04-26T11:46:47.845Z,3.10
2019-04-26T11:49:15.249Z,4.03
2019-04-26T11:51:42.668Z,3.77
2019-04-26T11:54:10.490Z,2.90
2019-04-26T11:56:38.849Z,2.40
2019-04-26T11:59:06.302Z,2.57
2019-04-26T12:01:36.674Z,2.53
2019-04-26T12:04:16.277Z,2.80
2019-04-26T12:06:51.498Z,2.70
2019-04-26T12:09:39.985Z,3.17
2019-04-26T12:12:09.150Z,3.07
2019-04-26T12:14:37.071Z,3.03
2019-04-26T12:17:04.721Z,2.80
2019-04-26T12:19:32.899Z,3.70
2019-04-26T12:22:00.314Z,3.30
2019-04-26T12:24:30.027Z,4.17
2019-04-26T12:26:57.595Z,3.10
2019-04-26T12:29:25.192Z,3.80
2019-04-26T12:31:52.590Z,3.40
2019-04-26T12:34:20.063Z,2.60
2019-04-26T12:36:47.487Z,3.57
2019-04-26T12:39:16.382Z,2.90
2019-04-26T12:41:44.030Z,2.70
2019-04-26T12:44:12.522Z,2.10
2019-04-26T12:46:59.353Z,2.00
2019-04-26T12:49:25.424Z,2.70
2019-04-26T12:51:52.889Z,3.50
2019-04-26T12:54:20.466Z,2.40
2019-04-26T12:56:47.860Z,2.83
2019-04-26T12:59:15.904Z,2.80
2019-04-26T13:01:46.359Z,2.70
2019-04-26T13:04:13.085Z,2.77
2019-04-26T13:06:51.608Z,3.20
2019-04-26T13:09:21.728Z,3.37
2019-04-26T13:12:06.746Z,3.20
2019-04-26T13:14:59.249Z,3.53
2019-04-26T13:17:41.279Z,3.53
2019-04-26T13:20:08.799Z,4.57
2019-04-26T13:22:45.971Z,4.30
2019-04-26T13:25:05.600Z,3.73
2019-04-26T13:27:33.036Z,3.93
2019-04-26T13:30:02.477Z,3.83
2019-04-26T13:32:29.906Z,3.10
2019-04-26T13:34:57.311Z,3.43
2019-04-26T13:37:24.723Z,3.70
2019-04-26T13:39:55.164Z,4.47
2019-04-26T13:42:21.509Z,3.37
2019-04-26T13:44:57.358Z,3.70
2019-04-26T13:47:51.518Z,3.50
2019-04-26T13:50:26.619Z,3.70
2019-04-26T13:52:54.677Z,3.60
2019-04-26T13:55:25.390Z,3.50
2019-04-26T13:57:51.546Z,4.27
2019-04-26T14:00:25.502Z,4.20
2019-04-26T14:02:52.909Z,3.00
2019-04-26T14:05:20.306Z,2.60
2019-04-26T14:07:47.822Z,2.40
2019-04-26T14:10:17.047Z,2.50
2019-04-26T14:12:46.261Z,1.83
2019-04-26T14:15:13.690Z,1.80
2019-04-26T14:17:41.089Z,1.50
2019-04-26T14:20:08.917Z,1.23
2019-04-26T14:22:42.443Z,1.73
2019-04-26T14:25:12.905Z,1.20
2019-04-26T14:27:49.801Z,1.10
2019-04-26T14:30:16.341Z,1.00
2019-04-26T14:32:43.761Z,1.00
2019-04-26T14:35:14.930Z,0.90
2019-04-26T14:37:40.499Z,0.83
2019-04-26T14:40:16.553Z,0.80
2019-04-26T14:42:42.462Z,0.80
2019-04-26T14:45:07.393Z,0.90
2019-04-26T14:47:46.685Z,0.87
2019-04-26T14:50:13.801Z,0.80
2019-04-26T14:52:35.719Z,0.80
2019-04-26T14:55:05.904Z,0.90
2019-04-26T14:57:33.988Z,0.90
2019-04-26T15:00:01.552Z,0.90
2019-04-26T15:02:54.562Z,0.90
2019-04-26T15:05:24.824Z,0.87
2019-04-26T15:07:53.893Z,1.00
2019-04-26T15:10:23.200Z,1.13
2019-04-26T15:12:58.298Z,1.20
2019-04-26T15:15:20.090Z,1.00
2019-04-26T15:17:47.504Z,0.80
2019-04-26T15:20:16.733Z,0.80
2019-04-26T15:22:48.537Z,1.10
2019-04-26T15:25:13.382Z,1.30
2019-04-26T15:27:42.096Z,0.90
2019-04-26T15:30:10.452Z,0.80
2019-04-26T15:32:37.865Z,0.80
2019-04-26T15:35:05.277Z,0.90
2019-04-26T15:37:32.726Z,1.10
2019-04-26T15:40:12.783Z,1.00
2019-04-26T15:43:01.158Z,1.10
2019-04-26T15:45:26.786Z,0.93
2019-04-26T15:48:16.230Z,1.23
2019-04-26T15:50:50.117Z,0.90
2019-04-26T15:53:14.783Z,1.03
2019-04-26T15:55:43.586Z,1.20
2019-04-26T15:58:11.095Z,0.90
2019-04-26T16:00:38.505Z,0.80
2019-04-26T16:03:07.420Z,1.00
2019-04-26T16:05:35.590Z,0.93
2019-04-26T16:08:04.578Z,1.10
2019-04-26T16:10:36.793Z,1.17
2019-04-26T16:13:15.764Z,1.60
2019-04-26T16:15:32.270Z,1.20
2019-04-26T16:17:59.677Z,0.90
2019-04-26T16:20:27.063Z,1.23
2019-04-26T16:22:54.468Z,1.00
2019-04-26T16:25:22.977Z,1.37
2019-04-26T16:28:10.016Z,1.10
2019-04-26T16:30:45.304Z,1.10
2019-04-26T16:33:16.721Z,1.00
2019-04-26T16:35:44.113Z,0.90
2019-04-26T16:38:29.958Z,0.90
2019-04-26T16:40:57.366Z,0.90
2019-04-26T16:43:36.448Z,1.30
2019-04-26T16:45:54.349Z,1.03
2019-04-26T16:48:25.552Z,1.00
2019-04-26T16:50:53.085Z,1.03
2019-04-26T16:53:37.883Z,1.00
2019-04-26T16:55:52.415Z,1.30
2019-04-26T16:58:19.175Z,1.00
2019-04-26T17:00:52.983Z,1.10
2019-04-26T17:03:15.841Z,1.40
2019-04-26T17:05:48.087Z,1.10
2019-04-26T17:08:12.897Z,1.40
2019-04-26T17:10:41.707Z,1.33
2019-04-26T17:13:09.470Z,0.90
2019-04-26T17:15:36.886Z,1.20
2019-04-26T17:18:04.329Z,1.50
2019-04-26T17:20:32.206Z,1.43
2019-04-26T17:23:12.618Z,1.20
2019-04-26T17:25:55.128Z,1.70
2019-04-26T17:28:26.462Z,1.40
2019-04-26T17:30:53.222Z,2.10
2019-04-26T17:33:24.131Z,1.57
2019-04-26T17:35:49.917Z,3.10
2019-04-26T17:38:17.410Z,2.53
2019-04-26T17:40:46.208Z,1.40
2019-04-26T17:43:13.885Z,1.43
2019-04-26T17:45:44.156Z,1.20
2019-04-26T17:48:14.027Z,1.20
2019-04-26T17:50:42.271Z,1.30
2019-04-26T17:53:10.779Z,1.10
2019-04-26T17:55:38.708Z,1.07
2019-04-26T17:58:11.828Z,1.33
2019-04-26T18:00:45.537Z,1.20
2019-04-26T18:03:07.610Z,1.83
2019-04-26T18:05:50.000Z,1.83
2019-04-26T18:08:30.467Z,1.60
2019-04-26T18:10:35.566Z,1.67
2019-04-26T18:13:02.090Z,1.60
2019-04-26T18:15:29.598Z,1.67
2019-04-26T18:18:17.593Z,2.10
2019-04-26T18:21:02.991Z,2.60
2019-04-26T18:23:33.826Z,1.80
2019-04-26T18:26:03.117Z,1.50
2019-04-26T18:28:30.573Z,1.33
2019-04-26T18:30:58.010Z,1.67
2019-04-26T18:33:26.087Z,1.20
2019-04-26T18:35:57.451Z,1.47
2019-04-26T18:38:24.759Z,2.10
2019-04-26T18:41:01.283Z,2.30
2019-04-26T18:43:24.172Z,1.90
2019-04-26T18:45:53.265Z,2.13
2019-04-26T18:48:23.498Z,2.20
2019-04-26T18:50:50.985Z,2.00
2019-04-26T18:53:46.633Z,11.03
2019-04-26T18:56:14.057Z,6.67
2019-04-26T18:58:41.584Z,4.60
2019-04-26T19:01:11.118Z,2.50
2019-04-26T19:03:38.754Z,2.67
2019-04-26T19:06:06.223Z,2.87
2019-04-26T19:08:43.818Z,2.20
2019-04-26T19:11:07.223Z,3.10
2019-04-26T19:13:48.446Z,4.20
2019-04-26T19:16:38.151Z,2.57
2019-04-26T19:19:22.867Z,2.70
2019-04-26T19:21:54.493Z,1.77
2019-04-26T19:24:22.921Z,1.90
2019-04-26T19:26:51.471Z,1.60
2019-04-26T19:29:27.008Z,1.93
2019-04-26T19:31:48.307Z,4.90
2019-04-26T19:34:17.831Z,3.57
2019-04-26T19:36:45.143Z,2.43
2019-04-26T19:39:13.334Z,2.10
2019-04-26T19:41:42.006Z,3.30
2019-04-26T19:44:09.604Z,2.57
2019-04-26T19:46:49.738Z,2.47
2019-04-26T19:49:43.242Z,2.23
2019-04-26T19:52:39.384Z,2.20
2019-04-26T19:55:23.823Z,2.50
2019-04-26T19:57:57.847Z,2.73
2019-04-26T20:00:25.342Z,2.80
2019-04-26T20:02:52.742Z,2.80
2019-04-26T20:05:22.361Z,2.93
2019-04-26T20:07:51.660Z,2.70
2019-04-26T20:10:18.984Z,2.40
2019-04-26T20:12:46.612Z,3.50
2019-04-26T20:15:25.376Z,5.50
2019-04-26T20:17:43.474Z,4.90
2019-04-26T20:20:20.744Z,4.97
2019-04-26T20:22:42.023Z,7.33
2019-04-26T20:25:09.629Z,5.40
2019-04-26T20:27:37.239Z,4.40
2019-04-26T20:30:06.908Z,3.40
2019-04-26T20:32:36.542Z,3.57
2019-04-26T20:35:26.910Z,4.23
2019-04-26T20:37:56.203Z,4.40
2019-04-26T20:40:25.558Z,4.20
2019-04-26T20:42:57.318Z,4.00
2019-04-26T20:45:21.897Z,3.60
2019-04-26T20:47:51.907Z,3.27
2019-04-26T20:50:19.277Z,3.50
2019-04-26T20:52:47.093Z,3.40
2019-04-26T20:55:14.617Z,4.27
2019-04-26T20:57:44.585Z,4.83
2019-04-26T21:00:12.670Z,5.07
2019-04-26T21:02:40.113Z,5.43
2019-04-26T21:05:11.319Z,3.97
2019-04-26T21:07:36.777Z,3.50
2019-04-26T21:10:05.217Z,3.97
2019-04-26T21:12:32.788Z,4.20
2019-04-26T21:15:00.171Z,5.17
2019-04-26T21:17:27.909Z,4.37
2019-04-26T21:19:58.513Z,5.37
2019-04-26T21:22:28.368Z,5.10
2019-04-26T21:24:58.907Z,4.70
2019-04-26T21:27:51.765Z,4.70
2019-04-26T21:30:38.509Z,4.87
2019-04-26T21:33:18.082Z,4.30
2019-04-26T21:35:51.002Z,4.70
2019-04-26T21:38:29.612Z,3.70
2019-04-26T21:41:11.171Z,3.67
2019-04-26T21:43:38.191Z,4.13
2019-04-26T21:46:08.555Z,4.90
2019-04-26T21:48:37.347Z,4.00
2019-04-26T21:51:03.517Z,4.73
2019-04-26T21:53:31.014Z,4.53
2019-04-26T21:55:58.900Z,5.10
2019-04-26T21:58:26.322Z,6.23
2019-04-26T22:01:06.784Z,7.43
2019-04-26T22:03:34.196Z,6.60
2019-04-26T22:06:01.603Z,6.70
2019-04-26T22:08:33.008Z,8.00
2019-04-26T22:11:01.098Z,9.63
2019-04-26T22:13:41.658Z,7.90
2019-04-26T22:16:29.280Z,7.20
2019-04-26T22:19:03.727Z,6.63
2019-04-26T22:21:37.084Z,7.40
2019-04-26T22:24:23.333Z,6.73
2019-04-26T22:26:50.812Z,7.50
2019-04-26T22:29:18.327Z,7.73
2019-04-26T22:31:45.910Z,6.50
2019-04-26T22:34:13.312Z,6.90
2019-04-26T22:36:40.705Z,6.63
2019-04-26T22:39:17.188Z,6.83
2019-04-26T22:41:44.680Z,7.60
2019-04-26T22:44:18.391Z,7.93
2019-04-26T22:47:08.486Z,9.60
2019-04-26T22:49:41.715Z,9.87
2019-04-26T22:52:06.302Z,9.53
2019-04-26T22:54:37.641Z,8.10
2019-04-26T22:57:08.145Z,8.83
2019-04-26T22:59:33.934Z,8.67
2019-04-26T23:02:03.499Z,8.40
2019-04-26T23:04:30.969Z,6.97
2019-04-26T23:06:58.396Z,7.30
2019-04-26T23:09:25.867Z,7.33
2019-04-26T23:12:03.825Z,9.50
2019-04-26T23:14:55.188Z,9.90
2019-04-26T23:17:43.627Z,7.33
2019-04-26T23:20:17.913Z,11.17
2019-04-26T23:22:45.476Z,10.13
2019-04-26T23:25:13.647Z,11.47
2019-04-26T23:27:41.360Z,13.20
2019-04-26T23:30:09.180Z,12.00
2019-04-26T23:32:36.580Z,8.40
2019-04-26T23:35:06.048Z,12.13
2019-04-26T23:37:33.337Z,9.27
2019-04-26T23:40:00.735Z,9.10
2019-04-26T23:42:28.183Z,11.80
2019-04-26T23:44:55.702Z,13.90
2019-04-26T23:47:25.450Z,12.13
2019-04-26T23:49:53.841Z,8.50
2019-04-26T23:52:24.302Z,8.60
2019-04-26T23:54:52.893Z,8.63
2019-04-26T23:57:20.715Z,12.30
2019-04-26T23:59:51.187Z,12.73
